sensor_id;sensor_type;location;lat;lon;timestamp;pressure;altitude;pressure_sealevel;temperature;humidity
12722;BME280;6425;50.316;8.114;2022-07-24T00:01:54;99419.00;;;18.64;57.41
12722;BME280;6425;50.316;8.114;2022-07-24T00:06:56;99424.16;;;18.71;57.07
12722;BME280;6425;50.316;8.114;2022-07-24T00:11:56;99433.63;;;18.70;56.76
12722;BME280;6425;50.316;8.114;2022-07-24T00:16:57;99427.94;;;16.93;61.60
12722;BME280;6425;50.316;8.114;2022-07-24T00:21:59;99409.59;;;17.35;60.83
12722;BME280;6425;50.316;8.114;2022-07-24T00:26:59;99425.25;;;17.63;60.48
12722;BME280;6425;50.316;8.114;2022-07-24T00:32:00;99427.56;;;17.56;60.32
12722;BME280;6425;50.316;8.114;2022-07-24T00:37:02;99422.72;;;17.99;59.15
12722;BME280;6425;50.316;8.114;2022-07-24T00:42:03;99428.34;;;17.94;59.36
12722;BME280;6425;50.316;8.114;2022-07-24T00:47:04;99424.75;;;18.40;58.69
12722;BME280;6425;50.316;8.114;2022-07-24T00:52:06;99419.78;;;18.23;57.65
12722;BME280;6425;50.316;8.114;2022-07-24T00:57:06;99420.94;;;18.22;57.96
12722;BME280;6425;50.316;8.114;2022-07-24T01:02:07;99414.00;;;18.06;58.24
12722;BME280;6425;50.316;8.114;2022-07-24T01:07:09;99404.78;;;17.78;58.98
12722;BME280;6425;50.316;8.114;2022-07-24T01:12:09;99413.03;;;17.64;59.87
12722;BME280;6425;50.316;8.114;2022-07-24T01:17:10;99401.94;;;17.83;59.38
12722;BME280;6425;50.316;8.114;2022-07-24T01:22:11;99408.53;;;17.68;59.63
12722;BME280;6425;50.316;8.114;2022-07-24T01:27:13;99409.16;;;17.65;59.08
12722;BME280;6425;50.316;8.114;2022-07-24T01:32:13;99404.50;;;17.79;59.20
12722;BME280;6425;50.316;8.114;2022-07-24T01:37:15;99395.50;;;17.88;59.09
12722;BME280;6425;50.316;8.114;2022-07-24T01:42:15;99408.59;;;17.82;58.69
12722;BME280;6425;50.316;8.114;2022-07-24T01:47:16;99404.81;;;17.59;59.61
12722;BME280;6425;50.316;8.114;2022-07-24T01:52:18;99410.75;;;17.52;59.84
12722;BME280;6425;50.316;8.114;2022-07-24T01:57:19;99411.88;;;17.70;59.71
12722;BME280;6425;50.316;8.114;2022-07-24T02:02:19;99405.56;;;17.46;60.24
12722;BME280;6425;50.316;8.114;2022-07-24T02:07:21;99406.34;;;17.33;60.41
12722;BME280;6425;50.316;8.114;2022-07-24T02:12:22;99398.31;;;17.50;59.97
12722;BME280;6425;50.316;8.114;2022-07-24T02:17:22;99404.25;;;17.24;60.39
12722;BME280;6425;50.316;8.114;2022-07-24T02:22:24;99402.34;;;17.39;60.42
12722;BME280;6425;50.316;8.114;2022-07-24T02:27:25;99412.25;;;17.45;60.17
12722;BME280;6425;50.316;8.114;2022-07-24T02:32:25;99417.63;;;16.98;60.49
12722;BME280;6425;50.316;8.114;2022-07-24T02:37:27;99401.56;;;17.19;60.75
12722;BME280;6425;50.316;8.114;2022-07-24T02:42:28;99423.75;;;16.95;61.29
12722;BME280;6425;50.316;8.114;2022-07-24T02:47:28;99419.13;;;17.10;61.32
12722;BME280;6425;50.316;8.114;2022-07-24T02:52:30;99404.50;;;16.61;62.14
12722;BME280;6425;50.316;8.114;2022-07-24T02:57:30;99413.66;;;17.23;61.55
12722;BME280;6425;50.316;8.114;2022-07-24T03:02:31;99411.50;;;17.20;60.46
12722;BME280;6425;50.316;8.114;2022-07-24T03:07:33;99423.47;;;16.97;61.42
12722;BME280;6425;50.316;8.114;2022-07-24T03:12:33;99415.38;;;17.57;60.64
12722;BME280;6425;50.316;8.114;2022-07-24T03:17:34;99417.22;;;17.80;60.16
12722;BME280;6425;50.316;8.114;2022-07-24T03:22:36;99415.66;;;18.07;60.04
12722;BME280;6425;50.316;8.114;2022-07-24T03:27:36;99418.06;;;18.27;59.21
12722;BME280;6425;50.316;8.114;2022-07-24T03:32:37;99417.25;;;18.41;59.06
12722;BME280;6425;50.316;8.114;2022-07-24T03:37:39;99418.69;;;18.52;58.73
12722;BME280;6425;50.316;8.114;2022-07-24T03:42:40;99412.19;;;18.43;59.11
12722;BME280;6425;50.316;8.114;2022-07-24T03:47:40;99417.91;;;18.65;59.17
12722;BME280;6425;50.316;8.114;2022-07-24T03:52:42;99415.31;;;18.83;58.55
12722;BME280;6425;50.316;8.114;2022-07-24T03:57:43;99413.28;;;18.74;58.88
12722;BME280;6425;50.316;8.114;2022-07-24T04:02:43;99409.13;;;18.44;59.58
12722;BME280;6425;50.316;8.114;2022-07-24T04:07:45;99420.16;;;18.63;59.24
12722;BME280;6425;50.316;8.114;2022-07-24T04:12:45;99428.00;;;16.88;62.79
12722;BME280;6425;50.316;8.114;2022-07-24T04:17:46;99419.59;;;17.68;61.60
12722;BME280;6425;50.316;8.114;2022-07-24T04:22:48;99421.03;;;16.90;64.41
12722;BME280;6425;50.316;8.114;2022-07-24T04:27:48;99434.00;;;16.95;65.25
12722;BME280;6425;50.316;8.114;2022-07-24T04:32:49;99427.28;;;17.76;62.44
12722;BME280;6425;50.316;8.114;2022-07-24T04:37:50;99423.16;;;17.74;61.87
12722;BME280;6425;50.316;8.114;2022-07-24T04:42:51;99420.84;;;18.55;59.32
12722;BME280;6425;50.316;8.114;2022-07-24T04:47:51;99418.22;;;18.77;58.80
12722;BME280;6425;50.316;8.114;2022-07-24T04:52:53;99427.63;;;19.04;58.47
12722;BME280;6425;50.316;8.114;2022-07-24T04:57:54;99419.56;;;19.30;58.33
12722;BME280;6425;50.316;8.114;2022-07-24T05:02:54;99413.34;;;19.92;57.28
12722;BME280;6425;50.316;8.114;2022-07-24T05:07:56;99430.31;;;18.68;57.99
12722;BME280;6425;50.316;8.114;2022-07-24T05:12:57;99438.34;;;19.33;57.40
12722;BME280;6425;50.316;8.114;2022-07-24T05:17:57;99435.06;;;19.67;54.76
12722;BME280;6425;50.316;8.114;2022-07-24T05:22:59;99444.16;;;19.59;54.92
12722;BME280;6425;50.316;8.114;2022-07-24T05:28:00;99434.94;;;19.50;55.17
12722;BME280;6425;50.316;8.114;2022-07-24T05:33:00;99442.25;;;18.96;56.76
12722;BME280;6425;50.316;8.114;2022-07-24T05:38:03;99447.13;;;18.30;59.60
12722;BME280;6425;50.316;8.114;2022-07-24T05:43:04;99441.97;;;19.34;57.44
12722;BME280;6425;50.316;8.114;2022-07-24T05:48:05;99425.91;;;20.83;53.34
12722;BME280;6425;50.316;8.114;2022-07-24T05:53:07;99435.88;;;21.75;50.33
12722;BME280;6425;50.316;8.114;2022-07-24T05:58:07;99439.81;;;21.74;50.06
12722;BME280;6425;50.316;8.114;2022-07-24T06:03:08;99422.88;;;22.61;48.21
12722;BME280;6425;50.316;8.114;2022-07-24T06:08:10;99431.03;;;22.84;47.52
12722;BME280;6425;50.316;8.114;2022-07-24T06:13:10;99422.91;;;23.20;46.00
12722;BME280;6425;50.316;8.114;2022-07-24T06:18:11;99420.72;;;24.10;43.62
12722;BME280;6425;50.316;8.114;2022-07-24T06:23:12;99426.84;;;23.19;45.17
12722;BME280;6425;50.316;8.114;2022-07-24T06:28:13;99413.53;;;22.95;45.21
12722;BME280;6425;50.316;8.114;2022-07-24T06:33:13;99406.06;;;22.78;46.98
12722;BME280;6425;50.316;8.114;2022-07-24T06:38:15;99429.16;;;21.33;49.55
12722;BME280;6425;50.316;8.114;2022-07-24T06:43:15;99420.78;;;21.24;51.37
12722;BME280;6425;50.316;8.114;2022-07-24T06:48:16;99408.94;;;24.16;43.77
12722;BME280;6425;50.316;8.114;2022-07-24T06:53:18;99402.34;;;23.67;44.23
12722;BME280;6425;50.316;8.114;2022-07-24T06:58:18;99405.63;;;22.59;47.22
12722;BME280;6425;50.316;8.114;2022-07-24T07:03:19;99414.34;;;22.96;46.61
12722;BME280;6425;50.316;8.114;2022-07-24T07:08:20;99414.22;;;23.13;47.90
12722;BME280;6425;50.316;8.114;2022-07-24T07:13:21;99413.00;;;23.02;46.22
12722;BME280;6425;50.316;8.114;2022-07-24T07:18:22;99417.06;;;25.03;42.89
12722;BME280;6425;50.316;8.114;2022-07-24T07:23:24;99422.63;;;24.42;43.74
12722;BME280;6425;50.316;8.114;2022-07-24T07:28:25;99424.31;;;20.99;53.16
12722;BME280;6425;50.316;8.114;2022-07-24T07:33:25;99409.94;;;21.14;52.85
12722;BME280;6425;50.316;8.114;2022-07-24T07:38:27;99425.84;;;21.22;53.19
12722;BME280;6425;50.316;8.114;2022-07-24T07:43:28;99415.34;;;24.17;46.00
12722;BME280;6425;50.316;8.114;2022-07-24T07:48:28;99411.22;;;24.72;45.02
12722;BME280;6425;50.316;8.114;2022-07-24T07:53:30;99411.06;;;25.82;41.71
12722;BME280;6425;50.316;8.114;2022-07-24T07:58:31;99415.81;;;24.89;42.23
12722;BME280;6425;50.316;8.114;2022-07-24T08:03:31;99410.16;;;27.17;38.44
12722;BME280;6425;50.316;8.114;2022-07-24T08:08:33;99412.84;;;24.36;43.32
12722;BME280;6425;50.316;8.114;2022-07-24T08:13:34;99406.03;;;26.95;39.75
12722;BME280;6425;50.316;8.114;2022-07-24T08:18:34;99384.19;;;27.59;37.23
12722;BME280;6425;50.316;8.114;2022-07-24T08:23:36;99396.22;;;25.29;41.55
12722;BME280;6425;50.316;8.114;2022-07-24T08:28:36;99391.63;;;26.05;40.30
12722;BME280;6425;50.316;8.114;2022-07-24T08:33:37;99399.41;;;24.42;43.61
12722;BME280;6425;50.316;8.114;2022-07-24T08:38:39;99397.41;;;28.16;36.33
12722;BME280;6425;50.316;8.114;2022-07-24T08:43:39;99395.19;;;28.98;33.80
12722;BME280;6425;50.316;8.114;2022-07-24T08:48:42;99384.38;;;26.16;39.38
12722;BME280;6425;50.316;8.114;2022-07-24T08:53:44;99386.28;;;28.04;36.09
12722;BME280;6425;50.316;8.114;2022-07-24T08:58:45;99378.41;;;27.16;37.49
12722;BME280;6425;50.316;8.114;2022-07-24T09:03:46;99372.06;;;25.93;40.09
12722;BME280;6425;50.316;8.114;2022-07-24T09:08:58;99366.06;;;26.86;36.20
12722;BME280;6425;50.316;8.114;2022-07-24T09:14:00;99358.00;;;26.37;37.73
12722;BME280;6425;50.316;8.114;2022-07-24T09:19:04;99360.88;;;28.00;34.26
12722;BME280;6425;50.316;8.114;2022-07-24T09:24:13;99358.91;;;28.24;33.12
12722;BME280;6425;50.316;8.114;2022-07-24T09:29:14;99361.13;;;29.10;32.04
12722;BME280;6425;50.316;8.114;2022-07-24T09:34:15;99352.66;;;28.84;31.55
12722;BME280;6425;50.316;8.114;2022-07-24T09:39:19;99345.94;;;29.18;31.45
12722;BME280;6425;50.316;8.114;2022-07-24T09:44:19;99335.66;;;30.04;30.03
12722;BME280;6425;50.316;8.114;2022-07-24T09:49:21;99346.97;;;28.80;31.91
12722;BME280;6425;50.316;8.114;2022-07-24T09:54:30;99345.97;;;27.22;34.30
12722;BME280;6425;50.316;8.114;2022-07-24T09:59:31;99333.53;;;27.23;33.88
12722;BME280;6425;50.316;8.114;2022-07-24T10:04:34;99320.25;;;26.69;36.12
12722;BME280;6425;50.316;8.114;2022-07-24T10:09:41;99320.56;;;25.57;37.52
12722;BME280;6425;50.316;8.114;2022-07-24T10:14:43;99320.63;;;26.84;35.70
12722;BME280;6425;50.316;8.114;2022-07-24T10:19:46;99324.06;;;27.90;33.31
12722;BME280;6425;50.316;8.114;2022-07-24T10:24:57;99322.13;;;27.94;33.36
12722;BME280;6425;50.316;8.114;2022-07-24T10:30:03;99313.44;;;30.40;29.55
12722;BME280;6425;50.316;8.114;2022-07-24T10:35:10;99302.84;;;31.61;28.02
12722;BME280;6425;50.316;8.114;2022-07-24T10:40:27;99303.44;;;31.19;28.24
12722;BME280;6425;50.316;8.114;2022-07-24T10:45:30;99293.34;;;28.04;32.75
12722;BME280;6425;50.316;8.114;2022-07-24T10:51:08;99284.69;;;26.93;35.74
12722;BME280;6425;50.316;8.114;2022-07-24T10:56:25;99275.94;;;28.21;34.34
12722;BME280;6425;50.316;8.114;2022-07-24T11:01:37;99258.63;;;29.66;30.38
12722;BME280;6425;50.316;8.114;2022-07-24T11:06:42;99258.81;;;27.42;35.92
12722;BME280;6425;50.316;8.114;2022-07-24T11:12:03;99256.09;;;28.14;31.66
12722;BME280;6425;50.316;8.114;2022-07-24T11:22:40;99242.19;;;27.98;32.46
12722;BME280;6425;50.316;8.114;2022-07-24T11:27:52;99242.91;;;29.32;29.89
12722;BME280;6425;50.316;8.114;2022-07-24T11:32:53;99229.53;;;28.95;30.11
12722;BME280;6425;50.316;8.114;2022-07-24T11:37:54;99230.94;;;28.78;31.23
12722;BME280;6425;50.316;8.114;2022-07-24T11:42:57;99225.44;;;28.89;30.60
12722;BME280;6425;50.316;8.114;2022-07-24T11:47:58;99222.38;;;30.75;27.67
12722;BME280;6425;50.316;8.114;2022-07-24T11:52:59;99206.59;;;29.30;31.43
12722;BME280;6425;50.316;8.114;2022-07-24T11:58:02;99203.78;;;27.90;31.53
12722;BME280;6425;50.316;8.114;2022-07-24T12:03:02;99183.88;;;29.53;29.37
12722;BME280;6425;50.316;8.114;2022-07-24T12:08:15;99183.47;;;31.63;26.56
12722;BME280;6425;50.316;8.114;2022-07-24T12:13:19;99168.84;;;32.61;24.79
12722;BME280;6425;50.316;8.114;2022-07-24T12:18:21;99191.16;;;32.55;24.25
12722;BME280;6425;50.316;8.114;2022-07-24T12:23:26;99180.66;;;33.36;23.38
12722;BME280;6425;50.316;8.114;2022-07-24T12:34:00;99172.41;;;32.83;23.95
12722;BME280;6425;50.316;8.114;2022-07-24T12:39:17;99160.13;;;30.71;27.60
12722;BME280;6425;50.316;8.114;2022-07-24T12:44:43;99153.47;;;32.58;24.58
12722;BME280;6425;50.316;8.114;2022-07-24T12:55:42;99131.91;;;33.52;23.66
12722;BME280;6425;50.316;8.114;2022-07-24T13:01:07;99138.69;;;33.65;22.87
12722;BME280;6425;50.316;8.114;2022-07-24T13:06:23;99127.28;;;33.73;23.08
12722;BME280;6425;50.316;8.114;2022-07-24T13:11:30;99127.25;;;31.93;25.37
12722;BME280;6425;50.316;8.114;2022-07-24T13:16:32;99115.53;;;31.95;25.46
12722;BME280;6425;50.316;8.114;2022-07-24T13:21:35;99106.28;;;30.43;27.20
12722;BME280;6425;50.316;8.114;2022-07-24T13:26:37;99103.00;;;33.05;23.82
12722;BME280;6425;50.316;8.114;2022-07-24T13:31:38;99083.50;;;34.11;22.48
12722;BME280;6425;50.316;8.114;2022-07-24T13:36:40;99092.09;;;32.93;22.81
12722;BME280;6425;50.316;8.114;2022-07-24T13:41:40;99082.75;;;34.76;21.55
12722;BME280;6425;50.316;8.114;2022-07-24T13:46:41;99076.94;;;33.73;22.75
12722;BME280;6425;50.316;8.114;2022-07-24T13:51:43;99073.66;;;32.56;24.32
12722;BME280;6425;50.316;8.114;2022-07-24T13:56:44;99069.22;;;32.52;25.33
12722;BME280;6425;50.316;8.114;2022-07-24T14:01:44;99075.81;;;32.13;24.58
12722;BME280;6425;50.316;8.114;2022-07-24T14:06:46;99059.28;;;31.61;25.48
12722;BME280;6425;50.316;8.114;2022-07-24T14:11:47;99050.59;;;29.30;29.03
12722;BME280;6425;50.316;8.114;2022-07-24T14:16:48;99043.41;;;32.21;24.32
12722;BME280;6425;50.316;8.114;2022-07-24T14:21:50;99029.06;;;34.47;22.60
12722;BME280;6425;50.316;8.114;2022-07-24T14:26:50;99017.63;;;34.51;21.94
12722;BME280;6425;50.316;8.114;2022-07-24T14:31:51;99024.16;;;35.79;20.19
12722;BME280;6425;50.316;8.114;2022-07-24T14:36:53;99024.16;;;35.56;20.62
12722;BME280;6425;50.316;8.114;2022-07-24T14:41:53;99009.94;;;31.27;26.53
12722;BME280;6425;50.316;8.114;2022-07-24T14:46:53;99004.19;;;32.02;25.84
12722;BME280;6425;50.316;8.114;2022-07-24T14:51:55;98998.53;;;30.66;27.41
12722;BME280;6425;50.316;8.114;2022-07-24T14:56:56;98985.44;;;30.15;27.31
12722;BME280;6425;50.316;8.114;2022-07-24T15:01:56;98977.69;;;29.97;27.49
12722;BME280;6425;50.316;8.114;2022-07-24T15:06:58;98962.97;;;30.54;25.54
12722;BME280;6425;50.316;8.114;2022-07-24T15:11:59;98968.59;;;30.36;27.24
12722;BME280;6425;50.316;8.114;2022-07-24T15:16:59;98965.06;;;31.04;25.44
12722;BME280;6425;50.316;8.114;2022-07-24T15:22:01;98962.91;;;32.04;24.80
12722;BME280;6425;50.316;8.114;2022-07-24T15:27:02;98962.91;;;34.09;21.76
12722;BME280;6425;50.316;8.114;2022-07-24T15:32:03;98965.22;;;32.24;24.02
12722;BME280;6425;50.316;8.114;2022-07-24T15:37:05;98951.94;;;32.80;23.31
12722;BME280;6425;50.316;8.114;2022-07-24T15:42:06;98947.00;;;35.00;20.65
12722;BME280;6425;50.316;8.114;2022-07-24T15:47:06;98945.34;;;35.69;19.94
12722;BME280;6425;50.316;8.114;2022-07-24T15:52:08;98952.31;;;35.88;19.05
12722;BME280;6425;50.316;8.114;2022-07-24T15:57:09;98937.66;;;34.72;21.16
12722;BME280;6425;50.316;8.114;2022-07-24T16:02:09;98934.84;;;35.86;19.14
12722;BME280;6425;50.316;8.114;2022-07-24T16:07:11;98922.91;;;36.83;18.62
12722;BME280;6425;50.316;8.114;2022-07-24T16:12:12;98928.97;;;35.97;19.91
12722;BME280;6425;50.316;8.114;2022-07-24T16:17:12;98913.72;;;36.03;19.40
12722;BME280;6425;50.316;8.114;2022-07-24T16:22:14;98914.25;;;36.34;19.53
12722;BME280;6425;50.316;8.114;2022-07-24T16:27:15;98895.91;;;33.36;23.05
12722;BME280;6425;50.316;8.114;2022-07-24T16:32:15;98895.59;;;33.27;23.73
12722;BME280;6425;50.316;8.114;2022-07-24T16:37:17;98893.19;;;35.05;21.10
12722;BME280;6425;50.316;8.114;2022-07-24T16:42:18;98881.38;;;30.63;26.49
12722;BME280;6425;50.316;8.114;2022-07-24T16:47:18;98881.19;;;31.95;24.87
12722;BME280;6425;50.316;8.114;2022-07-24T16:52:20;98873.81;;;32.05;24.92
12722;BME280;6425;50.316;8.114;2022-07-24T16:57:21;98870.53;;;32.77;23.02
12722;BME280;6425;50.316;8.114;2022-07-24T17:02:21;98871.13;;;33.40;22.27
12722;BME280;6425;50.316;8.114;2022-07-24T17:07:23;98861.53;;;33.27;22.58
12722;BME280;6425;50.316;8.114;2022-07-24T17:12:23;98869.84;;;33.48;22.47
12722;BME280;6425;50.316;8.114;2022-07-24T17:17:24;98874.13;;;34.79;20.87
12722;BME280;6425;50.316;8.114;2022-07-24T17:22:26;98860.28;;;34.27;21.17
12722;BME280;6425;50.316;8.114;2022-07-24T17:27:26;98862.44;;;34.46;20.57
12722;BME280;6425;50.316;8.114;2022-07-24T17:32:27;98863.28;;;33.55;21.80
12722;BME280;6425;50.316;8.114;2022-07-24T17:37:31;98857.19;;;34.17;21.32
12722;BME280;6425;50.316;8.114;2022-07-24T17:42:31;98866.81;;;34.54;21.11
12722;BME280;6425;50.316;8.114;2022-07-24T17:47:32;98860.94;;;34.38;20.83
12722;BME280;6425;50.316;8.114;2022-07-24T17:52:35;98863.16;;;33.96;21.77
12722;BME280;6425;50.316;8.114;2022-07-24T17:57:36;98858.69;;;34.26;21.81
12722;BME280;6425;50.316;8.114;2022-07-24T18:02:37;98860.44;;;33.17;23.52
12722;BME280;6425;50.316;8.114;2022-07-24T18:07:39;98859.25;;;33.52;23.49
12722;BME280;6425;50.316;8.114;2022-07-24T18:12:41;98855.84;;;33.27;23.79
12722;BME280;6425;50.316;8.114;2022-07-24T18:17:41;98860.78;;;32.22;25.31
12722;BME280;6425;50.316;8.114;2022-07-24T18:22:43;98856.56;;;31.67;25.56
12722;BME280;6425;50.316;8.114;2022-07-24T18:27:44;98856.94;;;31.77;26.11
12722;BME280;6425;50.316;8.114;2022-07-24T18:32:45;98867.59;;;31.33;26.77
12722;BME280;6425;50.316;8.114;2022-07-24T18:37:47;98859.97;;;30.91;27.98
12722;BME280;6425;50.316;8.114;2022-07-24T18:42:47;98857.91;;;30.23;28.60
12722;BME280;6425;50.316;8.114;2022-07-24T18:47:48;98850.94;;;29.75;28.60
12722;BME280;6425;50.316;8.114;2022-07-24T18:52:51;98857.63;;;29.45;29.76
12722;BME280;6425;50.316;8.114;2022-07-24T18:57:52;98849.59;;;29.54;29.50
12722;BME280;6425;50.316;8.114;2022-07-24T19:02:52;98838.81;;;29.05;30.22
12722;BME280;6425;50.316;8.114;2022-07-24T19:07:54;98839.97;;;28.48;30.22
12722;BME280;6425;50.316;8.114;2022-07-24T19:12:55;98849.66;;;28.47;30.23
12722;BME280;6425;50.316;8.114;2022-07-24T19:17:55;98841.72;;;28.60;29.56
12722;BME280;6425;50.316;8.114;2022-07-24T19:22:57;98837.38;;;28.25;30.55
12722;BME280;6425;50.316;8.114;2022-07-24T19:27:57;98842.94;;;28.18;30.42
12722;BME280;6425;50.316;8.114;2022-07-24T19:32:58;98839.00;;;27.93;30.65
12722;BME280;6425;50.316;8.114;2022-07-24T19:38:00;98843.53;;;27.64;30.58
12722;BME280;6425;50.316;8.114;2022-07-24T19:43:01;98833.13;;;27.68;30.56
12722;BME280;6425;50.316;8.114;2022-07-24T19:48:02;98828.16;;;27.58;30.00
12722;BME280;6425;50.316;8.114;2022-07-24T19:53:05;98840.31;;;27.65;30.42
12722;BME280;6425;50.316;8.114;2022-07-24T19:58:08;98838.81;;;27.71;30.41
12722;BME280;6425;50.316;8.114;2022-07-24T20:03:09;98848.19;;;27.22;31.06
12722;BME280;6425;50.316;8.114;2022-07-24T20:08:11;98844.25;;;27.57;30.33
12722;BME280;6425;50.316;8.114;2022-07-24T20:13:15;98846.94;;;27.80;31.31
12722;BME280;6425;50.316;8.114;2022-07-24T20:18:16;98836.50;;;27.84;30.97
12722;BME280;6425;50.316;8.114;2022-07-24T20:23:19;98842.03;;;27.13;31.92
12722;BME280;6425;50.316;8.114;2022-07-24T20:28:22;98845.44;;;27.56;31.70
12722;BME280;6425;50.316;8.114;2022-07-24T20:33:57;98838.91;;;27.48;32.12
12722;BME280;6425;50.316;8.114;2022-07-24T20:39:18;98849.81;;;26.97;33.94
12722;BME280;6425;50.316;8.114;2022-07-24T20:44:20;98832.03;;;26.17;34.74
12722;BME280;6425;50.316;8.114;2022-07-24T20:49:29;98840.16;;;26.02;35.81
12722;BME280;6425;50.316;8.114;2022-07-24T20:54:45;98848.06;;;26.16;35.77
12722;BME280;6425;50.316;8.114;2022-07-24T20:59:45;98846.25;;;25.85;36.78
12722;BME280;6425;50.316;8.114;2022-07-24T21:04:46;98831.31;;;25.42;37.52
12722;BME280;6425;50.316;8.114;2022-07-24T21:09:49;98840.13;;;25.21;38.14
12722;BME280;6425;50.316;8.114;2022-07-24T21:14:49;98827.72;;;24.87;38.99
12722;BME280;6425;50.316;8.114;2022-07-24T21:19:53;98835.25;;;24.83;39.06
12722;BME280;6425;50.316;8.114;2022-07-24T21:24:58;98835.41;;;24.74;40.16
12722;BME280;6425;50.316;8.114;2022-07-24T21:29:59;98823.16;;;24.32;40.88
12722;BME280;6425;50.316;8.114;2022-07-24T21:35:00;98836.91;;;23.93;41.83
12722;BME280;6425;50.316;8.114;2022-07-24T21:40:07;98825.25;;;23.35;42.77
12722;BME280;6425;50.316;8.114;2022-07-24T21:45:08;98841.47;;;23.17;43.30
12722;BME280;6425;50.316;8.114;2022-07-24T21:50:10;98824.88;;;22.10;46.14
12722;BME280;6425;50.316;8.114;2022-07-24T21:55:12;98819.22;;;22.92;44.41
12722;BME280;6425;50.316;8.114;2022-07-24T22:00:15;98824.78;;;23.33;43.67
12722;BME280;6425;50.316;8.114;2022-07-24T22:05:16;98820.44;;;23.07;43.84
12722;BME280;6425;50.316;8.114;2022-07-24T22:10:19;98823.50;;;22.90;44.31
12722;BME280;6425;50.316;8.114;2022-07-24T22:15:20;98813.00;;;22.99;44.51
12722;BME280;6425;50.316;8.114;2022-07-24T22:20:21;98807.81;;;22.73;44.87
12722;BME280;6425;50.316;8.114;2022-07-24T22:25:23;98815.59;;;22.55;45.40
12722;BME280;6425;50.316;8.114;2022-07-24T22:30:29;98795.94;;;22.39;45.38
12722;BME280;6425;50.316;8.114;2022-07-24T22:35:33;98801.53;;;22.39;45.90
12722;BME280;6425;50.316;8.114;2022-07-24T22:40:36;98799.41;;;21.99;47.19
12722;BME280;6425;50.316;8.114;2022-07-24T22:45:36;98796.09;;;21.85;46.85
12722;BME280;6425;50.316;8.114;2022-07-24T22:50:37;98810.69;;;22.03;46.68
12722;BME280;6425;50.316;8.114;2022-07-24T22:55:40;98804.84;;;21.96;47.41
12722;BME280;6425;50.316;8.114;2022-07-24T23:00:41;98807.59;;;21.84;47.58
12722;BME280;6425;50.316;8.114;2022-07-24T23:05:41;98802.69;;;22.01;47.05
12722;BME280;6425;50.316;8.114;2022-07-24T23:10:43;98793.69;;;21.96;46.97
12722;BME280;6425;50.316;8.114;2022-07-24T23:15:44;98797.56;;;21.70;47.25
12722;BME280;6425;50.316;8.114;2022-07-24T23:20:44;98794.13;;;21.19;48.32
12722;BME280;6425;50.316;8.114;2022-07-24T23:25:46;98798.69;;;21.57;47.61
12722;BME280;6425;50.316;8.114;2022-07-24T23:30:46;98793.19;;;21.82;47.54
12722;BME280;6425;50.316;8.114;2022-07-24T23:35:47;98783.25;;;21.26;48.46
12722;BME280;6425;50.316;8.114;2022-07-24T23:40:49;98778.28;;;21.11;49.08
12722;BME280;6425;50.316;8.114;2022-07-24T23:45:49;98773.41;;;21.29;48.79
12722;BME280;6425;50.316;8.114;2022-07-24T23:50:50;98767.75;;;21.38;48.93
12722;BME280;6425;50.316;8.114;2022-07-24T23:55:52;98759.94;;;21.31;48.81
